Time;durP1;ratioP1;P1;durP2;ratioP2;P2;SDS_P1;SDS_P2;PMS_P1;PMS_P2;Temp;Humidity;BMP_temperature;BMP_pressure;BME280_temperature;BME280_humidity;BME280_pressure;Samples;Min_cycle;Max_cycle;Signal;HPM_P1;HPM_P2
2023/03/09 00:02:02;;;;;;;29.30;13.02;;;;;;;;;;4898115;29;20091;-69
2023/03/09 00:04:28;;;;;;;24.25;11.85;;;;;;;;;;4885357;29;20040;-69
2023/03/09 00:06:54;;;;;;;25.67;11.88;;;;;;;;;;4897626;29;20064;-69
2023/03/09 00:09:20;;;;;;;25.17;12.88;;;;;;;;;;4896309;29;20044;-69
2023/03/09 00:11:47;;;;;;;25.63;12.38;;;;;;;;;;4884664;29;20479;-69
2023/03/09 00:14:14;;;;;;;23.20;11.23;;;;;;;;;;4899362;29;20044;-69
2023/03/09 00:16:40;;;;;;;25.63;12.48;;;;;;;;;;4887876;29;20036;-69
2023/03/09 00:19:07;;;;;;;25.33;11.35;;;;;;;;;;4916812;29;20036;-69
2023/03/09 00:21:36;;;;;;;20.60;10.77;;;;;;;;;;4882751;29;20040;-69
2023/03/09 00:24:06;;;;;;;21.08;10.55;;;;;;;;;;4884330;29;20045;-69
2023/03/09 00:26:34;;;;;;;20.60;11.00;;;;;;;;;;4899051;29;20128;-69
2023/03/09 00:29:00;;;;;;;21.52;10.63;;;;;;;;;;4901098;29;20062;-69
2023/03/09 00:31:26;;;;;;;20.05;10.75;;;;;;;;;;4870495;29;20052;-69
2023/03/09 00:33:52;;;;;;;20.67;10.23;;;;;;;;;;4887397;29;20048;-69
2023/03/09 00:36:18;;;;;;;21.85;9.65;;;;;;;;;;4892110;29;20044;-69
2023/03/09 00:38:49;;;;;;;25.15;10.88;;;;;;;;;;4885402;29;20068;-69
2023/03/09 00:41:15;;;;;;;21.20;10.20;;;;;;;;;;4884377;29;20040;-69
2023/03/09 00:43:41;;;;;;;25.30;10.77;;;;;;;;;;4885702;29;20036;-69
2023/03/09 00:46:08;;;;;;;20.15;10.55;;;;;;;;;;4898857;29;20175;-69
2023/03/09 00:48:36;;;;;;;22.20;11.05;;;;;;;;;;4867758;29;20044;-69
2023/03/09 00:51:02;;;;;;;21.00;10.23;;;;;;;;;;4898744;29;20512;-69
2023/03/09 00:53:28;;;;;;;23.55;10.75;;;;;;;;;;4898784;29;20044;-69
2023/03/09 00:55:54;;;;;;;24.55;10.32;;;;;;;;;;4892339;29;20056;-69
2023/03/09 00:58:20;;;;;;;20.52;10.60;;;;;;;;;;4896422;29;20084;-69
2023/03/09 01:00:46;;;;;;;19.63;10.23;;;;;;;;;;4889010;29;20049;-71
2023/03/09 01:03:12;;;;;;;19.27;9.63;;;;;;;;;;4898439;29;20446;-71
2023/03/09 01:05:39;;;;;;;21.50;10.38;;;;;;;;;;4900917;29;20040;-69
2023/03/09 01:08:05;;;;;;;21.00;10.43;;;;;;;;;;4899003;29;20507;-69
2023/03/09 01:10:31;;;;;;;21.73;10.90;;;;;;;;;;4900625;29;20054;-69
2023/03/09 01:12:57;;;;;;;19.85;10.13;;;;;;;;;;4897249;29;20036;-69
2023/03/09 01:15:23;;;;;;;26.08;10.85;;;;;;;;;;4892536;29;20044;-69
2023/03/09 01:17:49;;;;;;;21.27;10.15;;;;;;;;;;4883991;29;20084;-69
2023/03/09 01:20:15;;;;;;;20.13;9.73;;;;;;;;;;4900237;29;20047;-71
2023/03/09 01:22:41;;;;;;;19.92;10.20;;;;;;;;;;4891949;29;20047;-72
2023/03/09 01:25:08;;;;;;;18.08;9.80;;;;;;;;;;4902340;29;20044;-72
2023/03/09 01:27:34;;;;;;;26.20;11.10;;;;;;;;;;4894048;29;20041;-72
2023/03/09 01:30:00;;;;;;;19.95;9.65;;;;;;;;;;4890487;29;20036;-72
2023/03/09 01:32:26;;;;;;;19.63;9.55;;;;;;;;;;4892816;29;20215;-72
2023/03/09 01:34:53;;;;;;;18.30;9.52;;;;;;;;;;4885283;29;20047;-72
2023/03/09 01:37:19;;;;;;;18.98;10.13;;;;;;;;;;4885568;29;20467;-72
2023/03/09 01:39:45;;;;;;;22.58;10.15;;;;;;;;;;4894440;29;20092;-72
2023/03/09 01:42:11;;;;;;;20.15;10.38;;;;;;;;;;4900905;29;20052;-72
2023/03/09 01:44:37;;;;;;;19.55;10.20;;;;;;;;;;4899620;29;20480;-72
2023/03/09 01:47:03;;;;;;;20.90;10.00;;;;;;;;;;4883322;29;20036;-72
2023/03/09 01:49:47;;;;;;;24.83;10.77;;;;;;;;;;4897915;29;20100;-72
2023/03/09 01:52:22;;;;;;;21.38;10.63;;;;;;;;;;4878769;29;20119;-72
2023/03/09 01:54:50;;;;;;;20.60;10.05;;;;;;;;;;4892397;29;20067;-72
2023/03/09 01:57:20;;;;;;;22.02;10.60;;;;;;;;;;4897180;29;20040;-72
2023/03/09 01:59:46;;;;;;;21.63;10.85;;;;;;;;;;4885604;29;20131;-72
2023/03/09 02:02:13;;;;;;;23.30;11.23;;;;;;;;;;4867504;29;20132;-72
2023/03/09 02:04:45;;;;;;;23.23;11.18;;;;;;;;;;4872558;29;20044;-72
2023/03/09 02:07:13;;;;;;;20.60;10.55;;;;;;;;;;4889890;29;20052;-72
2023/03/09 02:09:49;;;;;;;21.08;10.38;;;;;;;;;;4882744;29;20044;-72
2023/03/09 02:12:18;;;;;;;22.63;10.73;;;;;;;;;;4889782;29;20116;-72
2023/03/09 02:14:44;;;;;;;21.38;10.30;;;;;;;;;;4891301;29;20498;-72
2023/03/09 02:17:11;;;;;;;23.25;11.20;;;;;;;;;;4886550;29;20468;-72
2023/03/09 02:19:41;;;;;;;21.83;11.45;;;;;;;;;;4884217;29;20044;-72
2023/03/09 02:22:07;;;;;;;22.23;10.80;;;;;;;;;;4887240;29;20041;-69
2023/03/09 02:24:36;;;;;;;21.95;11.20;;;;;;;;;;4898240;29;20122;-69
2023/03/09 02:27:08;;;;;;;24.92;10.93;;;;;;;;;;4899519;29;20039;-69
2023/03/09 02:29:34;;;;;;;24.60;12.00;;;;;;;;;;4913540;29;20127;-69
2023/03/09 02:32:00;;;;;;;22.00;11.65;;;;;;;;;;4883156;29;20040;-69
2023/03/09 02:34:26;;;;;;;21.88;11.73;;;;;;;;;;4895931;29;20068;-69
2023/03/09 02:36:52;;;;;;;23.83;11.48;;;;;;;;;;4883323;29;20443;-69
2023/03/09 02:39:39;;;;;;;22.92;11.38;;;1.80;99.90;;;;;;4882152;29;20080;-69
2023/03/09 02:42:06;;;;;;;25.63;11.93;;;;;;;;;;4887203;29;20488;-69
2023/03/09 02:44:33;;;;;;;23.52;12.13;;;;;;;;;;4888562;29;20481;-69
2023/03/09 02:47:06;;;;;;;27.02;12.00;;;;;;;;;;4889486;29;20393;-69
2023/03/09 02:49:32;;;;;;;25.73;11.63;;;;;;;;;;4882024;29;20081;-69
2023/03/09 02:51:59;;;;;;;25.30;12.27;;;;;;;;;;4877064;29;20502;-69
2023/03/09 02:54:25;;;;;;;23.30;11.75;;;;;;;;;;4895777;29;20118;-69
2023/03/09 02:56:51;;;;;;;26.48;12.85;;;;;;;;;;4888707;29;20040;-69
2023/03/09 02:59:17;;;;;;;26.45;12.55;;;;;;;;;;4898854;29;20044;-69
2023/03/09 03:01:43;;;;;;;26.58;13.00;;;;;;;;;;4890385;29;20075;-69
2023/03/09 03:04:09;;;;;;;24.75;12.25;;;;;;;;;;4896410;29;20405;-69
2023/03/09 03:06:35;;;;;;;27.55;12.38;;;;;;;;;;4898168;29;20044;-69
2023/03/09 03:09:01;;;;;;;21.73;11.55;;;;;;;;;;4898300;29;20422;-69
2023/03/09 03:11:27;;;;;;;24.50;12.35;;;;;;;;;;4898027;29;20032;-69
2023/03/09 03:13:54;;;;;;;22.92;11.90;;;;;;;;;;4896419;29;20112;-69
2023/03/09 03:16:21;;;;;;;28.50;13.23;;;;;;;;;;4890146;29;20494;-69
2023/03/09 03:18:47;;;;;;;27.58;12.98;;;;;;;;;;4881741;29;20044;-69
2023/03/09 03:21:13;;;;;;;28.75;13.80;;;;;;;;;;4895934;29;20505;-69
2023/03/09 03:23:39;;;;;;;28.58;13.13;;;;;;;;;;4898525;29;20047;-69
2023/03/09 03:26:07;;;;;;;27.42;13.38;;;;;;;;;;4897091;29;20040;-69
2023/03/09 03:28:33;;;;;;;26.88;13.48;;;;;;;;;;4914932;29;20133;-69
2023/03/09 03:31:00;;;;;;;25.45;12.50;;;;;;;;;;4895512;29;20040;-69
2023/03/09 03:33:26;;;;;;;30.42;12.52;;;;;;;;;;4898396;29;20046;-69
2023/03/09 03:35:52;;;;;;;25.67;13.23;;;;;;;;;;4887674;29;20040;-69
2023/03/09 03:38:18;;;;;;;27.25;13.52;;;;;;;;;;4895978;29;20043;-69
2023/03/09 03:40:44;;;;;;;31.00;13.60;;;;;;;;;;4885908;29;20036;-69
2023/03/09 03:43:10;;;;;;;31.17;14.52;;;;;;;;;;4888181;29;20041;-69
2023/03/09 03:45:36;;;;;;;28.40;14.20;;;;;;;;;;4891510;29;20169;-69
2023/03/09 03:48:02;;;;;;;28.23;13.25;;;;;;;;;;4892228;29;20406;-69
2023/03/09 03:50:28;;;;;;;28.02;13.68;;;;;;;;;;4895708;29;20041;-68
2023/03/09 03:52:54;;;;;;;31.17;13.70;;;;;;;;;;4897897;29;20123;-68
2023/03/09 03:55:20;;;;;;;29.55;13.40;;;;;;;;;;4871001;29;20091;-69
2023/03/09 03:57:46;;;;;;;29.10;13.25;;;;;;;;;;4881510;29;20044;-69
2023/03/09 04:00:13;;;;;;;29.38;14.25;;;;;;;;;;4896680;29;20040;-69
2023/03/09 04:02:39;;;;;;;26.63;13.57;;;;;;;;;;4893905;29;20103;-69
2023/03/09 04:05:06;;;;;;;29.23;14.13;;;;;;;;;;4897568;29;20056;-69
2023/03/09 04:07:33;;;;;;;30.75;13.80;;;;;;;;;;4881251;29;20040;-69
2023/03/09 04:09:59;;;;;;;30.38;13.52;;;;;;;;;;4880907;29;20504;-69
2023/03/09 04:12:25;;;;;;;31.05;14.00;;;;;;;;;;4896749;29;20067;-69
2023/03/09 04:14:51;;;;;;;27.52;13.88;;;;;;;;;;4895601;29;20033;-69
2023/03/09 04:17:17;;;;;;;28.58;13.82;;;;;;;;;;4895599;29;20045;-69
2023/03/09 04:19:43;;;;;;;30.27;14.68;;;;;;;;;;4882763;29;20485;-69
2023/03/09 04:22:09;;;;;;;29.75;15.10;;;;;;;;;;4888914;29;20048;-69
2023/03/09 04:24:35;;;;;;;32.65;14.70;;;;;;;;;;4881146;29;20052;-69
2023/03/09 04:27:02;;;;;;;31.08;13.18;;;;;;;;;;4865432;29;20076;-69
2023/03/09 04:29:28;;;;;;;29.40;14.43;;;;;;;;;;4879864;29;20088;-69
2023/03/09 04:31:54;;;;;;;33.03;14.98;;;;;;;;;;4874193;29;20068;-69
2023/03/09 04:34:20;;;;;;;34.83;15.43;;;;;;;;;;4897056;29;20183;-69
2023/03/09 04:36:46;;;;;;;32.13;14.65;;;;;;;;;;4897332;29;20044;-69
2023/03/09 04:39:12;;;;;;;32.63;14.93;;;;;;;;;;4865924;29;20036;-69
2023/03/09 04:41:38;;;;;;;32.60;14.93;;;;;;;;;;4897605;29;20064;-69
2023/03/09 04:44:04;;;;;;;33.13;16.27;;;;;;;;;;4897727;29;20052;-69
2023/03/09 04:46:30;;;;;;;34.97;15.32;;;;;;;;;;4882400;29;20047;-69
2023/03/09 04:48:56;;;;;;;34.47;15.18;;;;;;;;;;4884131;29;20079;-69
2023/03/09 04:51:23;;;;;;;34.20;14.82;;;;;;;;;;4888000;29;20068;-69
2023/03/09 04:53:49;;;;;;;35.47;15.93;;;;;;;;;;4880628;29;20485;-69
2023/03/09 04:56:15;;;;;;;33.30;15.25;;;;;;;;;;4893487;29;20041;-69
2023/03/09 04:58:41;;;;;;;37.60;15.35;;;;;;;;;;4882626;29;20107;-69
2023/03/09 05:01:07;;;;;;;36.88;16.48;;;;;;;;;;4900942;29;20039;-70
2023/03/09 05:03:33;;;;;;;34.78;16.23;;;;;;;;;;4898221;29;20040;-71
2023/03/09 05:05:59;;;;;;;37.90;15.80;;;;;;;;;;4891611;29;20126;-71
2023/03/09 05:08:25;;;;;;;32.97;14.88;;;;;;;;;;4893756;29;20045;-71
2023/03/09 05:10:51;;;;;;;38.00;15.90;;;;;;;;;;4889259;29;20055;-71
2023/03/09 05:13:17;;;;;;;38.22;16.52;;;;;;;;;;4898406;29;20437;-72
2023/03/09 05:15:43;;;;;;;35.35;16.13;;;;;;;;;;4898550;29;20124;-72
2023/03/09 05:18:11;;;;;;;34.45;16.65;;;;;;;;;;4882626;29;20044;-72
2023/03/09 05:20:37;;;;;;;31.13;15.43;;;;;;;;;;4897017;29;20489;-72
2023/03/09 05:23:03;;;;;;;36.45;16.05;;;;;;;;;;4896728;29;20051;-72
2023/03/09 05:25:30;;;;;;;33.35;16.30;;;;;;;;;;4900763;29;20468;-72
2023/03/09 05:27:56;;;;;;;33.50;15.70;;;;;;;;;;4895663;29;20048;-72
2023/03/09 05:30:23;;;;;;;35.58;16.15;;;;;;;;;;4892111;29;20143;-72
2023/03/09 05:32:49;;;;;;;35.47;16.33;;;;;;;;;;4898700;29;20103;-72
2023/03/09 05:35:16;;;;;;;36.72;16.80;;;;;;;;;;4890565;29;20099;-71
2023/03/09 05:37:43;;;;;;;34.75;15.80;;;;;;;;;;4899069;29;20532;-72
2023/03/09 05:40:10;;;;;;;36.72;15.27;;;;;;;;;;4884500;29;20500;-72
2023/03/09 05:42:36;;;;;;;38.65;16.38;;;;;;;;;;4899714;29;20036;-72
2023/03/09 05:45:04;;;;;;;35.60;15.60;;;;;;;;;;4895138;29;20442;-72
2023/03/09 05:47:30;;;;;;;34.47;15.82;;;;;;;;;;4899588;29;20493;-72
2023/03/09 05:49:56;;;;;;;40.63;17.65;;;;;;;;;;4885934;29;20044;-72
2023/03/09 05:52:22;;;;;;;34.13;15.52;;;;;;;;;;4895680;29;20132;-72
2023/03/09 05:54:48;;;;;;;34.15;15.88;;;;;;;;;;4908989;29;20039;-71
2023/03/09 05:57:14;;;;;;;37.85;16.77;;;;;;;;;;4876648;29;20043;-71
2023/03/09 05:59:40;;;;;;;38.42;16.42;;;;;;;;;;4883605;29;20032;-71
2023/03/09 06:02:07;;;;;;;38.97;18.27;;;;;;;;;;4897303;29;20516;-72
2023/03/09 06:04:33;;;;;;;35.15;17.67;;;;;;;;;;4894665;29;20068;-71
2023/03/09 06:06:59;;;;;;;39.45;17.65;;;;;;;;;;4898565;29;20044;-69
2023/03/09 06:09:26;;;;;;;42.15;18.58;;;;;;;;;;4884210;29;20119;-69
2023/03/09 06:11:52;;;;;;;38.72;17.55;;;;;;;;;;4895443;29;20036;-69
2023/03/09 06:14:18;;;;;;;41.08;18.15;;;;;;;;;;4884290;29;20103;-69
2023/03/09 06:16:44;;;;;;;40.20;18.20;;;;;;;;;;4892718;29;20040;-69
2023/03/09 06:19:11;;;;;;;34.20;15.35;;;;;;;;;;4882725;29;20123;-70
2023/03/09 06:21:37;;;;;;;39.28;18.02;;;;;;;;;;4882584;29;20036;-69
2023/03/09 06:24:04;;;;;;;38.90;16.90;;;;;;;;;;4888697;29;20044;-69
2023/03/09 06:26:30;;;;;;;42.10;18.27;;;;;;;;;;4914270;29;20159;-69
2023/03/09 06:28:56;;;;;;;44.35;19.02;;;;;;;;;;4878135;29;20052;-69
2023/03/09 06:31:22;;;;;;;39.28;16.73;;;;;;;;;;4876476;29;20044;-68
2023/03/09 06:33:48;;;;;;;37.00;16.65;;;;;;;;;;4882098;29;20040;-69
2023/03/09 06:36:15;;;;;;;40.28;17.88;;;;;;;;;;4882236;29;20041;-68
2023/03/09 06:38:42;;;;;;;41.20;17.98;;;;;;;;;;4896437;29;20051;-69
2023/03/09 06:41:08;;;;;;;39.80;18.05;;;;;;;;;;4898783;29;20063;-69
2023/03/09 06:43:34;;;;;;;38.03;17.05;;;;;;;;;;4896617;29;20057;-69
2023/03/09 06:46:00;;;;;;;40.72;17.45;;;;;;;;;;4896724;29;20052;-69
2023/03/09 06:48:26;;;;;;;37.65;16.08;;;;;;;;;;4889394;29;20111;-71
2023/03/09 06:50:52;;;;;;;35.83;17.17;;;;;;;;;;4899212;29;20048;-71
2023/03/09 06:53:18;;;;;;;39.03;17.77;;;;;;;;;;4896329;29;20053;-71
2023/03/09 06:55:45;;;;;;;44.58;18.60;;;;;;;;;;4881973;29;20045;-71
2023/03/09 06:58:11;;;;;;;38.92;16.63;;;;;;;;;;4882245;29;20041;-73
2023/03/09 07:00:40;;;;;;;38.63;16.83;;;;;;;;;;4881903;29;20132;-72
2023/03/09 07:03:06;;;;;;;40.10;17.23;;;;;;;;;;4882177;29;20053;-72
2023/03/09 07:05:32;;;;;;;37.78;16.55;;;;;;;;;;4871082;29;20075;-72
2023/03/09 07:07:58;;;;;;;39.42;17.27;;;;;;;;;;4900610;29;20058;-72
2023/03/09 07:10:24;;;;;;;37.92;16.90;;;;;;;;;;4900528;29;20500;-72
2023/03/09 07:12:50;;;;;;;37.78;16.30;;;;;;;;;;4900594;29;20441;-72
2023/03/09 07:15:17;;;;;;;38.05;16.42;;;;;;;;;;4900610;29;20044;-72
2023/03/09 07:17:43;;;;;;;35.45;16.85;;;;;;;;;;4900041;29;20044;-72
2023/03/09 07:20:10;;;;;;;42.65;18.25;;;;;;;;;;4900332;29;20086;-72
2023/03/09 07:22:36;;;;;;;43.70;16.38;;;;;;;;;;4884849;29;20040;-72
2023/03/09 07:25:02;;;;;;;42.40;17.15;;;;;;;;;;4898656;29;20044;-72
2023/03/09 07:27:30;;;;;;;39.08;16.33;;;;;;;;;;4898502;29;20048;-72
2023/03/09 07:29:56;;;;;;;39.95;16.67;;;;;;;;;;4888790;29;20493;-72
2023/03/09 07:32:22;;;;;;;40.80;16.60;;;;;;;;;;4888716;29;20044;-72
2023/03/09 07:34:48;;;;;;;40.90;18.15;;;;;;;;;;4899914;29;20130;-73
2023/03/09 07:37:14;;;;;;;43.78;18.50;;;;;;;;;;4884297;29;20040;-72
2023/03/09 07:39:40;;;;;;;33.72;16.55;;;;;;;;;;4885684;29;20397;-73
2023/03/09 07:42:06;;;;;;;37.35;16.95;;;;;;;;;;4884692;29;20119;-72
2023/03/09 07:44:32;;;;;;;40.75;18.27;;;;;;;;;;4886885;29;20500;-72
2023/03/09 07:46:59;;;;;;;34.30;15.38;;;;;;;;;;4876097;29;20040;-72
2023/03/09 07:49:25;;;;;;;38.78;16.50;;;;;;;;;;4894334;29;20036;-72
2023/03/09 07:51:51;;;;;;;36.00;15.82;;;;;;;;;;4888081;29;20040;-72
2023/03/09 07:54:17;;;;;;;36.17;16.38;;;;;;;;;;4899765;29;20051;-72
2023/03/09 07:56:47;;;;;;;34.60;15.88;;;;;;;;;;4895415;29;20083;-72
2023/03/09 07:59:16;;;;;;;36.42;15.98;;;;;;;;;;4898364;29;20040;-72
2023/03/09 08:01:42;;;;;;;34.65;14.85;;;;;;;;;;4880881;29;20496;-72
2023/03/09 08:04:08;;;;;;;33.38;15.73;;;;;;;;;;4879978;29;20375;-72
2023/03/09 08:06:36;;;;;;;31.73;14.55;;;;;;;;;;4892399;29;20052;-72
2023/03/09 08:09:03;;;;;;;35.55;15.57;;;;;;;;;;4897237;29;20040;-72
2023/03/09 08:11:29;;;;;;;30.35;14.00;;;;;;;;;;4893803;29;20045;-73
2023/03/09 08:13:55;;;;;;;33.63;14.63;;;;;;;;;;4880951;29;20046;-72
2023/03/09 08:16:21;;;;;;;30.48;14.40;;;;;;;;;;4882989;29;20040;-73
2023/03/09 08:18:47;;;;;;;28.42;13.02;;;;;;;;;;4899343;29;20044;-73
2023/03/09 08:21:14;;;;;;;31.92;14.27;;;;;;;;;;4883607;29;20123;-73
2023/03/09 08:23:41;;;;;;;31.83;13.88;;;;;;;;;;4884156;29;20143;-76
2023/03/09 08:26:14;;;;;;;28.10;13.15;;;;;;;;;;4876785;29;20053;-72
2023/03/09 08:28:40;;;;;;;32.05;13.93;;;;;;;;;;4876208;29;20125;-73
2023/03/09 08:31:07;;;;;;;30.98;14.05;;;;;;;;;;4886294;29;20045;-72
2023/03/09 08:33:33;;;;;;;29.35;13.82;;;;;;;;;;4884601;29;20053;-73
2023/03/09 08:35:59;;;;;;;27.52;13.52;;;;;;;;;;4902136;29;20485;-73
2023/03/09 08:38:25;;;;;;;27.25;12.95;;;;;;;;;;4903189;29;20183;-72
2023/03/09 08:40:51;;;;;;;24.35;12.55;;;;;;;;;;4902816;29;20496;-72
2023/03/09 08:43:17;;;;;;;28.02;13.52;;;;;;;;;;4903137;29;20062;-72
2023/03/09 08:45:43;;;;;;;25.05;12.90;;;;;;;;;;4902860;29;20052;-72
2023/03/09 08:48:09;;;;;;;22.77;12.18;;;;;;;;;;4903040;29;20052;-72
2023/03/09 08:50:35;;;;;;;26.20;13.02;;;;;;;;;;4902610;29;20485;-72
2023/03/09 08:53:01;;;;;;;25.73;12.35;;;;;;;;;;4903010;29;20052;-72
2023/03/09 08:55:28;;;;;;;24.58;12.40;;;;;;;;;;4903073;29;20050;-72
2023/03/09 08:57:55;;;;;;;22.20;11.15;;;;;;;;;;4900028;29;20045;-72
2023/03/09 09:00:22;;;;;;;20.38;10.48;;;;;;;;;;4902899;29;20047;-73
2023/03/09 09:02:48;;;;;;;19.15;10.15;;;;;;;;;;4903149;29;20040;-74
2023/03/09 09:05:14;;;;;;;21.48;10.35;;;;;;;;;;4901601;29;20048;-69
2023/03/09 09:07:40;;;;;;;20.50;10.07;;;;;;;;;;4901275;29;20111;-69
2023/03/09 09:10:07;;;;;;;23.42;11.13;;;;;;;;;;4901994;29;20048;-69
2023/03/09 09:12:37;;;;;;;20.58;11.07;;;;;;;;;;4902370;29;20405;-69
2023/03/09 09:15:03;;;;;;;21.25;11.45;;;;;;;;;;4902707;29;20397;-72
2023/03/09 09:17:29;;;;;;;22.17;10.00;;;;;;;;;;4902604;29;20040;-72
2023/03/09 09:19:55;;;;;;;26.85;10.48;;;;;;;;;;4900913;29;20095;-73
2023/03/09 09:22:21;;;;;;;21.52;11.02;;;;;;;;;;4902259;29;20052;-73
2023/03/09 09:24:49;;;;;;;22.38;10.50;;;;;;;;;;4900993;29;20477;-73
2023/03/09 09:27:15;;;;;;;19.65;10.90;;;;;;;;;;4902635;29;20048;-72
2023/03/09 09:29:41;;;;;;;22.63;11.25;;;;;;;;;;4902266;29;20059;-72
2023/03/09 09:32:08;;;;;;;18.48;10.68;;;;;;;;;;4902140;29;20052;-73
2023/03/09 09:34:35;;;;;;;20.13;10.73;;;;;;;;;;4902349;29;20044;-73
2023/03/09 09:37:01;;;;;;;22.17;10.82;;;;;;;;;;4902221;29;20040;-73
2023/03/09 09:39:28;;;;;;;18.08;11.32;;;;;;;;;;4902455;29;20355;-73
2023/03/09 09:41:56;;;;;;;19.35;10.73;;;;;;;;;;4901869;29;20047;-73
2023/03/09 09:44:24;;;;;;;19.77;10.93;;;;;;;;;;4902353;29;20054;-73
2023/03/09 09:46:51;;;;;;;20.52;11.32;;;;;;;;;;4901823;29;20052;-73
2023/03/09 09:49:19;;;;;;;22.67;11.05;;;;;;;;;;4918865;29;20487;-72
2023/03/09 09:52:10;;;;;;;21.58;10.02;;;4.00;99.90;;;;;;4901822;29;20052;-73
2023/03/09 09:54:57;;;;;;;19.25;10.55;;;;;;;;;;4902249;29;20123;-72
2023/03/09 09:57:35;;;;;;;20.73;11.00;;;;;;;;;;4901765;29;20493;-72
2023/03/09 10:00:05;;;;;;;21.55;10.77;;;;;;;;;;4902000;29;20048;-72
2023/03/09 10:02:31;;;;;;;17.95;11.02;;;;;;;;;;4901599;29;20047;-72
2023/03/09 10:05:06;;;;;;;18.15;10.50;;;;;;;;;;4901707;29;20050;-72
2023/03/09 10:07:33;;;;;;;20.83;10.25;;;;;;;;;;4886014;29;20120;-72
2023/03/09 10:10:02;;;;;;;19.55;11.15;;;;;;;;;;4913619;29;20044;-72
2023/03/09 10:12:28;;;;;;;19.70;10.00;;;;;;;;;;4919783;29;20075;-72
2023/03/09 10:14:57;;;;;;;18.30;10.15;;;;;;;;;;4914023;29;20040;-72
2023/03/09 10:17:35;;;;;;;18.30;10.23;;;;;;;;;;4901679;29;20063;-72
2023/03/09 10:20:13;;;;;;;17.08;9.15;;;;;;;;;;4897434;29;20059;-73
2023/03/09 10:22:40;;;;;;;20.13;10.15;;;;;;;;;;4900069;29;20050;-73
2023/03/09 10:25:11;;;;;;;16.75;9.18;;;;;;;;;;4885023;29;20054;-72
2023/03/09 10:27:55;;;;;;;17.08;9.40;;;;;;;;;;4892788;29;20515;-72
2023/03/09 10:30:22;;;;;;;20.17;9.68;;;;;;;;;;4882613;29;20052;-72
2023/03/09 10:32:54;;;;;;;21.00;10.20;;;;;;;;;;4882441;29;20485;-72
2023/03/09 10:35:23;;;;;;;13.85;8.43;;;;;;;;;;4882732;29;20096;-72
2023/03/09 10:37:50;;;;;;;14.45;9.18;;;;;;;;;;4882447;29;20091;-73
2023/03/09 10:40:21;;;;;;;18.08;9.98;;;;;;;;;;4882757;29;20362;-73
2023/03/09 10:42:48;;;;;;;14.95;8.68;;;;;;;;;;4882551;29;20048;-73
2023/03/09 10:45:27;;;;;;;17.45;9.85;;;;;;;;;;4899748;29;20059;-73
2023/03/09 10:47:59;;;;;;;15.82;9.40;;;;;;;;;;4889564;29;20044;-73
2023/03/09 10:50:36;;;;;;;17.30;9.43;;;;;;;;;;4901196;29;20056;-73
2023/03/09 10:53:22;;;;;;;18.75;9.90;;;;;;;;;;4900522;29;20441;-72
2023/03/09 10:55:49;;;;;;;22.45;10.05;;;;;;;;;;4885329;29;20078;-72
2023/03/09 10:58:17;;;;;;;16.73;9.07;;;;;;;;;;4900931;29;20036;-72
2023/03/09 11:00:56;;;;;;;16.02;9.07;;;;;;;;;;4900707;29;20048;-72
2023/03/09 11:03:41;;;;;;;19.50;9.90;;;;;;;;;;4886645;29;20048;-73
2023/03/09 11:06:20;;;;;;;15.55;9.30;;;;;;;;;;4888460;29;20132;-73
2023/03/09 11:08:54;;;;;;;17.95;9.60;;;;;;;;;;4900050;29;20036;-73
2023/03/09 11:11:21;;;;;;;18.17;9.52;;;;;;;;;;4900485;29;20044;-71
2023/03/09 11:13:47;;;;;;;17.90;9.93;;;;;;;;;;4917108;29;20437;-70
2023/03/09 11:16:34;;;;;;;19.40;9.43;;;;;;;;;;4917415;29;20132;-71
2023/03/09 11:19:14;;;;;;;16.60;10.07;;;;;;;;;;4876279;29;20036;-73
2023/03/09 11:22:00;;;;;;;14.27;8.63;;;;;;;;;;4892174;29;20041;-73
2023/03/09 11:24:36;;;;;;;15.98;9.27;;;;;;;;;;4888485;29;20095;-73
2023/03/09 11:27:10;;;;;;;23.48;9.68;;;;;;;;;;4882757;29;20505;-73
2023/03/09 11:29:42;;;;;;;15.10;9.50;;;;;;;;;;4899841;29;20071;-74
2023/03/09 11:32:11;;;;;;;15.60;9.60;;;;;;;;;;4900278;29;20143;-74
2023/03/09 11:34:39;;;;;;;17.95;9.32;;;;;;;;;;4900374;29;20044;-73
2023/03/09 11:37:13;;;;;;;15.35;9.90;;;;;;;;;;4899992;29;20044;-74
2023/03/09 11:39:49;;;;;;;14.52;9.00;;;;;;;;;;4898837;29;20048;-73
2023/03/09 11:42:18;;;;;;;16.65;9.60;;;;;;;;;;4900119;29;20060;-73
2023/03/09 11:44:45;;;;;;;17.98;10.13;;;;;;;;;;4889576;29;20168;-73
2023/03/09 11:47:22;;;;;;;17.48;9.48;;;;;;;;;;4899964;29;20617;-71
2023/03/09 11:49:49;;;;;;;21.38;9.82;;;;;;;;;;4897994;29;20036;-72
2023/03/09 11:52:18;;;;;;;15.93;9.27;;;;;;;;;;4899917;29;20155;-71
2023/03/09 11:54:47;;;;;;;18.40;9.52;;;;;;;;;;4894307;29;20127;-73
2023/03/09 11:57:16;;;;;;;14.23;9.27;;;;;;;;;;4887232;29;20401;-72
2023/03/09 11:59:46;;;;;;;15.77;9.70;;;;;;;;;;4899294;29;20493;-72
2023/03/09 12:02:12;;;;;;;19.58;10.40;;;;;;;;;;4899786;29;20145;-73
2023/03/09 12:04:39;;;;;;;21.08;9.77;;;;;;;;;;4900855;29;20051;-70
2023/03/09 12:07:21;;;;;;;16.60;9.65;;;;;;;;;;4891162;29;20601;-72
2023/03/09 12:09:54;;;;;;;19.88;10.05;;;;;;;;;;4892917;29;20044;-70
2023/03/09 12:12:24;;;;;;;19.83;10.10;;;;;;;;;;4903349;29;20044;-68
2023/03/09 12:14:57;;;;;;;18.00;10.45;;;;;;;;;;4903016;29;20436;-68
2023/03/09 12:17:28;;;;;;;18.27;10.02;;;;;;;;;;4903384;29;20068;-69
2023/03/09 12:19:54;;;;;;;15.98;9.68;;;;;;;;;;4903295;29;20750;-68
2023/03/09 12:22:26;;;;;;;15.35;9.63;;;;;;;;;;4888532;29;20040;-68
2023/03/09 12:24:55;;;;;;;15.52;9.15;;;;;;;;;;4870763;29;20043;-68
2023/03/09 12:27:22;;;;;;;16.30;9.48;;;;;;;;;;4903206;29;20044;-68
2023/03/09 12:29:53;;;;;;;14.52;9.05;;;;;;;;;;4903251;29;20359;-69
2023/03/09 12:32:19;;;;;;;14.82;9.45;;;;;;;;;;4903429;29;20063;-69
2023/03/09 12:34:46;;;;;;;16.80;9.52;;;;;;;;;;4887203;29;20071;-69
2023/03/09 12:37:28;;;;;;;18.73;9.20;;;;;;;;;;4896729;29;20096;-69
2023/03/09 12:39:58;;;;;;;14.77;9.18;;;;;;;;;;4902081;29;20044;-69
2023/03/09 12:42:39;;;;;;;15.93;8.95;;;;;;;;;;4901933;29;20095;-69
2023/03/09 12:45:11;;;;;;;14.02;8.93;;;;;;;;;;4916785;29;20130;-69
2023/03/09 12:47:44;;;;;;;14.23;9.00;;;;;;;;;;4900452;29;20082;-68
2023/03/09 12:50:28;;;;;;;15.80;8.98;;;;;;;;;;4918197;29;20166;-69
2023/03/09 12:53:01;;;;;;;20.50;9.10;;;;;;;;;;4889896;29;20053;-69
2023/03/09 12:55:37;;;;;;;12.07;7.80;;;;;;;;;;4891192;29;20044;-71
2023/03/09 12:58:29;;;;;;;12.13;8.20;;;;;;;;;;4888698;29;20123;-68
2023/03/09 13:01:00;;;;;;;14.82;7.95;;;;;;;;;;4900429;29;20059;-68
2023/03/09 13:03:43;;;;;;;11.27;7.25;;;;;;;;;;4891927;29;20473;-68
2023/03/09 13:06:21;;;;;;;12.23;7.63;;;;;;;;;;4902660;29;20048;-68
2023/03/09 13:08:53;;;;;;;12.88;7.50;;;;;;;;;;4902389;29;20114;-68
2023/03/09 13:11:26;;;;;;;11.93;7.07;;;;;;;;;;4902377;29;20076;-68
2023/03/09 13:13:55;;;;;;;17.45;7.72;;;;;;;;;;4902253;29;20118;-68
2023/03/09 13:16:34;;;;;;;14.05;7.43;;;;;;;;;;4901606;29;20044;-68
2023/03/09 13:19:18;;;;;;;12.25;7.38;;;;;;;;;;4902111;29;20036;-68
2023/03/09 13:21:53;;;;;;;13.00;7.70;;;;;;;;;;4902048;29;20036;-68
2023/03/09 13:24:38;;;;;;;12.02;7.32;;;;;;;;;;4902374;29;20048;-68
2023/03/09 13:27:07;;;;;;;12.52;7.82;;;;;;;;;;4887579;29;20067;-68
2023/03/09 13:29:34;;;;;;;14.02;7.28;;;;;;;;;;4882911;29;20057;-68
2023/03/09 13:32:00;;;;;;;12.50;7.13;;;;;;;;;;4918354;29;20107;-68
2023/03/09 13:34:29;;;;;;;12.63;7.55;;;;;;;;;;4886443;29;20123;-68
2023/03/09 13:37:02;;;;;;;11.80;7.13;;;;;;;;;;4901779;29;20100;-68
2023/03/09 13:39:28;;;;;;;13.57;7.35;;;;;;;;;;4901676;29;20488;-68
2023/03/09 13:41:55;;;;;;;15.82;7.35;;;;;;;;;;4886493;29;20063;-69
2023/03/09 13:44:23;;;;;;;13.02;7.32;;;;;;;;;;4886245;29;20497;-68
2023/03/09 13:46:50;;;;;;;12.25;6.78;;;;;;;;;;4901608;29;20095;-68
2023/03/09 13:49:21;;;;;;;11.07;6.68;;;;;;;;;;4886271;29;20126;-69
2023/03/09 13:51:52;;;;;;;12.32;7.18;;;;;;;;;;4901666;29;20401;-69
2023/03/09 13:54:28;;;;;;;11.13;7.20;;;;;;;;;;4885918;29;20048;-68
2023/03/09 13:57:02;;;;;;;13.68;7.10;;;;;;;;;;4901215;29;20109;-69
2023/03/09 13:59:31;;;;;;;13.75;6.90;;;;;;;;;;4901338;29;20565;-69
2023/03/09 14:02:01;;;;;;;14.60;6.95;;;;;;;;;;4901868;29;20429;-68
2023/03/09 14:04:28;;;;;;;11.40;7.00;;;;;;;;;;4901345;29;20138;-68
2023/03/09 14:06:55;;;;;;;11.73;7.10;;;;;;;;;;4901428;29;20127;-68
2023/03/09 14:09:28;;;;;;;10.10;6.28;;;;;;;;;;4901252;29;20050;-68
2023/03/09 14:11:54;;;;;;;12.90;7.47;;;;;;;;;;4901647;29;20464;-68
2023/03/09 14:14:22;;;;;;;10.32;6.97;;;;;;;;;;4901152;29;20044;-69
2023/03/09 14:16:49;;;;;;;12.98;7.38;;;;;;;;;;4901124;29;20047;-68
2023/03/09 14:19:27;;;;;;;11.05;7.18;;;;;;;;;;4901149;29;20043;-68
2023/03/09 14:21:53;;;;;;;12.00;7.53;;;;;;;;;;4900925;29;20130;-69
2023/03/09 14:24:40;;;;;;;11.98;7.32;;;;;;;;;;4900979;29;20083;-68
2023/03/09 14:27:25;;;;;;;12.75;7.45;;;;;;;;;;4900639;29;20076;-68
2023/03/09 14:29:54;;;;;;;12.88;7.70;;;;;;;;;;4900350;29;20060;-68